Portada
METAR-TAF:

METAR-TAF

Aeropuertos :

Cascaes, Portugal

latitud: 38-43-32N, longitud: 009-21-19W, altitud: 99 m

Observación

El informe se hizo hace 18 minutos, a las 08:00 UTC
Viento 6 kt del este, variando entre noreste y sureste
Temperatura 11°C
Humedad 87%
Presión 1027 hPa
Visibilidad: 9000 m
Escasas nubes a una altura de 1400 ft

METAR: LPCS 220800Z 09006KT 050V130 9000 FEW014 11/09 Q1027

Hora: 08:18 (08:18 UTC)

Pronóstico

El informe se hizo hace 18 horas y 18 minutos, a las 14:00 UTC
Pronóstico válido del 21 a las 15 UTC al 21 a las 24 UTC
Viento 15 kt del sureste
Visibilidad 10 km o más
Escasas nubes a una altura de 3000 ft
Evolucionando progresivamente
del 21 a las 18 UTC al 21 a las 21 UTC
Viento 5 kt del sur

TAF: LPCS 211400Z 2115/2124 14015KT 9999 FEW030 BECMG 2118/2121 17005KT

Observaciones y pronósticos meteorológicos de más de 4000 aeropuertos (mensajes METAR y TAF).

Los puntos amarillos y rojos representan las estaciones disponibles.

Ponga el ratón en el punto deseado para ver el nombre de la estación.

Haga clic para ver las observaciones y los pronósticos meteorológicos.

Para cambiar el mapa : haga clic en los botones verdes con una cruz de color negro para hacer un zoom, en el botón verde con un guión para alejar o en las flechas verdes para mapas adyacentes.


METAR-TAF: